HGSO2: HUGO

Data processed at Sat Aug 18 2018 22:58


All information presented herein is the property of the government of the United States of America and may be revised or deleted at any time without prior notice.
Dissemination of this information without the expressed written consent of the Public Affairs Office, Tulsa District U.S. Army Corps of Engineers is strictly prohibited.
These data are gathered electronically and, as presented, have not undergone any form of quality control. These data are not guaranteed to be valid or correct.
Go to home page.
Go to station list.


Previous Day
Next Day
Current Day


    
SHEF ID:       HGLO2     Hugo Lake
STATION TYPE:  RESERVOIR
Normal Pool:  Bottom =   390.00, Top =   404.50

               PRECIP ELEVATION   STORAGE    INFLOW   RELEASE  AIR-TEMP  WIND-DIRWIND-SPEED REL-HUMID SOLAR-RAD   VOLTAGE  BAT-LOAD
                   in        ft     ac-ft       cfs       cfs         F       deg       mph         %      W/m2      volt      volt
              Ccp-Rev   Ccp-Rev   Ccp-Rev  Regi-Rev  Regi-Rev   Ccp-Rev   Ccp-Rev   Ccp-Rev   Ccp-Rev   Ccp-Rev   Ccp-Rev   Ccp-Rev
(US/Central)
08/18 00:00      0.00    405.20    152245      2902      2035     80.64    137.70      6.50     82.99      0.00     13.59     13.13
08/18 01:00      0.00    405.18    151977      3335      2036     79.65    134.90      4.80     86.97      0.00     13.59     13.13
08/18 02:00      0.00    405.19    152111      3336      2035     78.21    116.10      2.80     91.40      0.00     13.59     13.13
08/18 03:00      0.00    405.20    152245      1628      2036     77.11     69.20      4.00     96.01      0.00     13.59     13.13
08/18 04:00      0.00    405.19    152111      2443      2036     76.59    115.50      3.80     97.37      0.00     13.59     13.13
08/18 05:00      0.00    405.18    151977      1711      2035     75.87    146.50      4.10     98.95      0.00     13.59     13.13
08/18 06:00      0.00    405.20    152245      2035      2035     75.27    159.70      5.60     99.72      0.00     13.58     13.13
08/18 07:00      0.00    405.18    151977      2686      2035     74.53    159.30      6.60    100.21      0.00     13.58     13.13
08/18 08:00      0.00    405.20    152245      2686      2035     74.46    151.80      6.40    100.21     49.80     13.58     13.21
08/18 09:00      0.00    405.21    152380      2604      2036     77.54    134.30      3.70     96.14    216.50     13.58     13.21
08/18 10:00      0.00    405.20    152245      3011      2036     82.15    147.20      2.20     82.95    408.20     13.58     13.21
08/18 11:00      0.00    405.21    152380      2362      2036     85.57      2.70      2.80     74.00    581.90     13.58     13.21
08/18 12:00      0.00    405.21    152380      2687      2037     86.67    354.90      5.40     72.18    718.40     13.58     13.21
08/18 13:00      0.00    405.21    152380      2687      2037     89.24    349.90      6.30     66.75    805.40     13.58     13.13
08/18 14:00      0.00    405.23    152648      2362      2037     91.11    350.50      7.20     62.53    832.00     13.58     13.21
08/18 15:00      0.00    405.22    152514      2362      2038     92.37    351.10      8.70     61.47    804.60     13.59     13.21
08/18 16:00      0.00    405.22    152514      2037      2037     94.44    347.90      7.70     57.26    721.50     13.59     13.21
08/18 17:00      0.00    405.22    152514      1712      2037     95.11    349.50      7.30     57.25    577.90     13.59     13.21
08/18 18:00      0.00    405.21    152380      2037      2037     94.78    345.10      6.10     56.09    408.60     13.59     13.21
08/18 19:00      0.00    405.22    152514      1712      2037     95.11    339.10      5.30     59.44    194.10     13.59     13.13
08/18 20:00      0.00    405.22    152514      1712      2037     91.56    351.80      2.10     68.91      1.10     13.59     13.21
08/18 21:00      0.00    405.21    152380      1387      2037     88.25     12.10      4.10     73.25      0.00     13.59     13.13
08/18 22:00      0.00    405.23    152648      -901      -901     85.68     87.30      3.30     81.78      0.00     13.59     13.13
08/18 23:00      ----      ----      ----      ----      ----      ----      ----      ----      ----      ----      ----      ----